createdAt,value
2018-05-24T00:01:04.808Z,2.93
2018-05-24T00:03:32.397Z,3.60
2018-05-24T00:06:00.029Z,3.57
2018-05-24T00:08:27.609Z,3.53
2018-05-24T00:10:55.192Z,3.07
2018-05-24T00:13:23.569Z,3.37
2018-05-24T00:15:52.105Z,2.70
2018-05-24T00:18:19.680Z,3.17
2018-05-24T00:20:47.316Z,3.10
2018-05-24T00:23:14.892Z,3.27
2018-05-24T00:25:42.464Z,3.03
2018-05-24T00:28:10.093Z,2.90
2018-05-24T00:30:37.673Z,3.87
2018-05-24T00:33:05.253Z,4.20
2018-05-24T00:35:32.893Z,4.30
2018-05-24T00:38:00.475Z,4.90
2018-05-24T00:40:28.050Z,4.43
2018-05-24T00:42:56.468Z,5.03
2018-05-24T00:45:24.048Z,4.77
2018-05-24T00:47:51.626Z,4.77
2018-05-24T00:50:19.252Z,4.97
2018-05-24T00:52:46.829Z,4.77
2018-05-24T00:55:26.300Z,4.73
2018-05-24T00:57:53.872Z,4.80
2018-05-24T01:00:21.444Z,5.10
2018-05-24T01:02:49.837Z,5.33
2018-05-24T01:05:18.182Z,5.90
2018-05-24T01:07:45.760Z,5.43
2018-05-24T01:10:14.237Z,5.27
2018-05-24T01:12:41.816Z,5.17
2018-05-24T01:15:10.157Z,5.50
2018-05-24T01:17:37.888Z,5.23
2018-05-24T01:20:05.481Z,5.63
2018-05-24T01:22:33.057Z,6.70
2018-05-24T01:25:00.692Z,6.07
2018-05-24T01:27:28.274Z,6.20
2018-05-24T01:29:55.854Z,6.40
2018-05-24T01:32:24.233Z,6.20
2018-05-24T01:34:52.581Z,6.90
2018-05-24T01:37:32.018Z,7.50
2018-05-24T01:39:59.592Z,7.67
2018-05-24T01:42:27.172Z,7.77
2018-05-24T01:44:55.543Z,8.00
2018-05-24T01:47:23.172Z,7.97
2018-05-24T01:49:50.748Z,7.90
2018-05-24T01:52:18.325Z,8.50
2018-05-24T01:54:45.965Z,10.13
2018-05-24T01:57:13.548Z,10.23
2018-05-24T01:59:41.125Z,10.40
2018-05-24T02:02:09.533Z,9.90
2018-05-24T02:04:37.109Z,9.43
2018-05-24T02:07:04.699Z,11.60
2018-05-24T02:09:32.423Z,11.17
2018-05-24T02:12:00.010Z,11.07
2018-05-24T02:14:27.589Z,11.97
2018-05-24T02:16:55.244Z,11.80
2018-05-24T02:19:22.865Z,11.20
2018-05-24T02:21:50.445Z,12.37
2018-05-24T02:24:18.084Z,11.23
2018-05-24T02:26:45.664Z,10.30
2018-05-24T02:29:13.249Z,11.73
2018-05-24T02:31:40.885Z,11.63
2018-05-24T02:34:08.464Z,11.93
2018-05-24T02:36:36.056Z,11.30
2018-05-24T02:39:05.398Z,12.23
2018-05-24T02:41:32.984Z,12.03
2018-05-24T02:44:00.578Z,11.90
2018-05-24T02:46:28.957Z,12.70
2018-05-24T02:48:57.309Z,12.53
2018-05-24T02:51:24.950Z,11.70
2018-05-24T02:53:52.537Z,11.77
2018-05-24T02:56:20.199Z,12.30
2018-05-24T02:58:47.765Z,12.33
2018-05-24T03:01:15.349Z,11.60
2018-05-24T03:03:43.735Z,11.87
2018-05-24T03:06:12.081Z,12.30
2018-05-24T03:08:39.663Z,11.57
2018-05-24T03:11:08.068Z,11.10
2018-05-24T03:13:35.653Z,11.20
2018-05-24T03:16:03.229Z,9.80
2018-05-24T03:18:30.889Z,10.77
2018-05-24T03:20:58.468Z,10.40
2018-05-24T03:23:26.057Z,10.03
2018-05-24T03:25:54.456Z,11.27
2018-05-24T03:28:22.040Z,10.90
2018-05-24T03:30:49.621Z,10.77
2018-05-24T03:33:17.285Z,10.10
2018-05-24T03:35:44.876Z,8.93
2018-05-24T03:38:13.229Z,9.77
2018-05-24T03:40:40.864Z,11.13
2018-05-24T03:43:08.436Z,9.50
2018-05-24T03:45:36.013Z,10.03
2018-05-24T03:48:03.625Z,9.37
2018-05-24T03:50:31.209Z,10.53
2018-05-24T03:52:58.821Z,10.00
2018-05-24T03:55:27.221Z,10.47
2018-05-24T03:57:54.813Z,10.27
2018-05-24T04:00:34.372Z,9.50
2018-05-24T04:03:13.756Z,9.70
2018-05-24T04:05:42.212Z,10.00
2018-05-24T04:08:09.756Z,10.30
2018-05-24T04:10:38.209Z,10.40
2018-05-24T04:13:05.829Z,10.23
2018-05-24T04:15:34.173Z,9.60
2018-05-24T04:18:01.749Z,9.50
2018-05-24T04:20:29.369Z,10.17
2018-05-24T04:22:56.949Z,10.73
2018-05-24T04:25:24.524Z,10.17
2018-05-24T04:27:52.133Z,9.90
2018-05-24T04:30:19.712Z,9.70
2018-05-24T04:32:47.357Z,10.53
2018-05-24T04:35:14.943Z,10.90
2018-05-24T04:37:42.520Z,9.63
2018-05-24T04:40:10.166Z,9.17
2018-05-24T04:42:37.749Z,9.20
2018-05-24T04:45:05.332Z,10.93
2018-05-24T04:47:32.961Z,7.77
2018-05-24T04:50:00.557Z,8.53
2018-05-24T04:52:28.909Z,7.73
2018-05-24T04:54:56.545Z,8.07
2018-05-24T04:57:24.317Z,7.40
2018-05-24T04:59:51.896Z,7.33
2018-05-24T05:02:19.508Z,7.80
2018-05-24T05:04:47.088Z,7.70
2018-05-24T05:07:14.661Z,8.00
2018-05-24T05:09:42.302Z,7.63
2018-05-24T05:12:10.150Z,7.50
2018-05-24T05:14:38.589Z,7.10
2018-05-24T05:17:06.901Z,7.47
2018-05-24T05:19:35.260Z,7.87
2018-05-24T05:22:02.891Z,7.50
2018-05-24T05:24:30.465Z,9.10
2018-05-24T05:26:58.045Z,9.60
2018-05-24T05:29:25.661Z,9.77
2018-05-24T05:31:53.242Z,8.97
2018-05-24T05:34:20.821Z,9.93
2018-05-24T05:36:48.428Z,9.93
2018-05-24T05:39:16.002Z,9.30
2018-05-24T05:41:43.576Z,9.23
2018-05-24T05:44:11.201Z,10.10
2018-05-24T05:46:39.545Z,10.60
2018-05-24T05:49:07.125Z,10.30
2018-05-24T05:51:35.521Z,11.00
2018-05-24T05:54:03.869Z,11.60
2018-05-24T05:56:31.452Z,11.93
2018-05-24T05:59:00.025Z,11.70
2018-05-24T06:01:28.376Z,12.90
2018-05-24T06:03:56.033Z,13.57
2018-05-24T06:06:23.616Z,12.93
2018-05-24T06:08:51.205Z,13.40
2018-05-24T06:11:19.584Z,12.13
2018-05-24T06:13:47.945Z,12.93
2018-05-24T06:16:15.553Z,13.43
2018-05-24T06:18:43.937Z,12.30
2018-05-24T06:21:11.520Z,13.10
2018-05-24T06:23:39.107Z,14.00
2018-05-24T06:26:07.538Z,12.50
2018-05-24T06:28:35.217Z,12.27
2018-05-24T06:31:03.543Z,11.90
2018-05-24T06:33:31.888Z,12.77
2018-05-24T06:35:59.482Z,13.93
2018-05-24T06:38:27.881Z,17.67
2018-05-24T06:40:55.469Z,13.33
2018-05-24T06:43:23.049Z,13.87
2018-05-24T06:45:50.682Z,13.10
2018-05-24T06:48:18.266Z,13.20
2018-05-24T06:50:45.851Z,13.10
2018-05-24T06:53:13.493Z,12.97
2018-05-24T06:55:41.076Z,13.33
2018-05-24T06:58:08.661Z,13.27
2018-05-24T07:00:36.315Z,11.93
2018-05-24T07:03:04.670Z,12.00
2018-05-24T07:05:32.256Z,11.17
2018-05-24T07:08:00.686Z,12.53
2018-05-24T07:10:28.269Z,11.47
2018-05-24T07:12:55.853Z,11.60
2018-05-24T07:15:24.259Z,10.67
2018-05-24T07:17:51.861Z,11.27
2018-05-24T07:20:19.452Z,11.17
2018-05-24T07:22:47.861Z,9.93
2018-05-24T07:25:15.450Z,10.20
2018-05-24T07:27:43.038Z,10.17
2018-05-24T07:30:10.677Z,9.60
2018-05-24T07:32:38.256Z,10.00
2018-05-24T07:35:05.840Z,10.33
2018-05-24T07:37:34.225Z,10.40
2018-05-24T07:40:02.569Z,10.60
2018-05-24T07:42:30.189Z,11.13
2018-05-24T07:44:57.769Z,10.60
2018-05-24T07:47:25.374Z,10.50
2018-05-24T07:49:53.760Z,11.43
2018-05-24T07:52:22.105Z,10.30
2018-05-24T07:54:49.695Z,11.60
2018-05-24T07:57:18.089Z,11.60
2018-05-24T07:59:46.513Z,11.30
2018-05-24T08:02:14.881Z,11.13
2018-05-24T08:04:42.462Z,11.03
2018-05-24T08:07:10.049Z,11.00
2018-05-24T08:09:38.441Z,10.40
2018-05-24T08:12:06.801Z,11.43
2018-05-24T08:14:34.387Z,10.30
2018-05-24T08:17:02.802Z,11.00
2018-05-24T08:19:30.389Z,10.53
2018-05-24T08:21:57.981Z,11.20
2018-05-24T08:24:26.370Z,11.10
2018-05-24T08:26:54.769Z,11.03
2018-05-24T08:29:22.352Z,11.40
2018-05-24T08:31:49.938Z,11.37
2018-05-24T08:34:17.582Z,11.33
2018-05-24T08:36:45.172Z,11.37
2018-05-24T08:39:12.753Z,10.97
2018-05-24T08:41:41.257Z,10.67
2018-05-24T08:44:08.783Z,10.73
2018-05-24T08:46:36.365Z,11.10
2018-05-24T08:49:03.989Z,10.33
2018-05-24T08:51:31.574Z,11.50
2018-05-24T08:53:59.981Z,11.00
2018-05-24T08:56:27.572Z,10.33
2018-05-24T08:58:55.152Z,9.73
2018-05-24T09:01:22.904Z,10.83
2018-05-24T09:03:50.414Z,9.80
2018-05-24T09:06:18.001Z,10.60
2018-05-24T09:08:45.634Z,10.47
2018-05-24T09:11:13.222Z,10.30
2018-05-24T09:13:40.806Z,9.70
2018-05-24T09:16:08.446Z,10.03
2018-05-24T09:18:36.025Z,9.40
2018-05-24T09:21:03.604Z,9.40
2018-05-24T09:23:31.232Z,10.03
2018-05-24T09:25:58.821Z,9.93
2018-05-24T09:28:26.456Z,9.73
2018-05-24T09:30:54.065Z,9.70
2018-05-24T09:33:22.445Z,10.77
2018-05-24T09:35:50.793Z,10.30
2018-05-24T09:38:18.431Z,9.23
2018-05-24T09:40:46.008Z,10.07
2018-05-24T09:43:13.584Z,10.10
2018-05-24T09:45:41.226Z,10.60
2018-05-24T09:48:08.828Z,11.20
2018-05-24T09:50:37.182Z,9.77
2018-05-24T09:53:04.818Z,9.53
2018-05-24T09:55:32.399Z,9.73
2018-05-24T09:57:59.977Z,9.97
2018-05-24T10:00:27.604Z,10.93
2018-05-24T10:02:55.193Z,10.23
2018-05-24T10:05:22.781Z,10.70
2018-05-24T10:07:51.188Z,10.17
2018-05-24T10:10:18.782Z,10.10
2018-05-24T10:12:46.369Z,10.70
2018-05-24T10:15:14.005Z,11.37
2018-05-24T10:17:41.589Z,12.43
2018-05-24T10:20:09.177Z,12.10
2018-05-24T10:22:36.828Z,11.70
2018-05-24T10:25:05.181Z,11.87
2018-05-24T10:27:32.768Z,12.63
2018-05-24T10:30:01.158Z,12.23
2018-05-24T10:32:29.525Z,11.83
2018-05-24T10:34:57.885Z,12.03
2018-05-24T10:37:25.528Z,11.40
2018-05-24T10:39:53.108Z,11.57
2018-05-24T10:42:20.689Z,11.20
2018-05-24T10:44:49.118Z,11.03
2018-05-24T10:47:16.696Z,10.30
2018-05-24T10:49:44.281Z,11.50
2018-05-24T10:52:12.697Z,11.40
2018-05-24T10:54:40.284Z,10.43
2018-05-24T10:57:07.868Z,11.50
2018-05-24T10:59:35.548Z,10.07
2018-05-24T11:02:03.113Z,10.60
2018-05-24T11:04:31.457Z,10.60
2018-05-24T11:06:59.363Z,10.50
2018-05-24T11:09:27.714Z,11.07
2018-05-24T11:11:55.352Z,9.60
2018-05-24T11:14:22.934Z,10.03
2018-05-24T11:16:50.512Z,10.20
2018-05-24T11:19:18.409Z,9.87
2018-05-24T11:21:46.765Z,10.03
2018-05-24T11:24:14.348Z,10.10
2018-05-24T11:26:41.989Z,11.07
2018-05-24T11:29:10.343Z,10.57
2018-05-24T11:31:37.934Z,10.17
2018-05-24T11:34:05.589Z,11.40
2018-05-24T11:36:33.177Z,11.23
2018-05-24T11:39:00.760Z,10.50
2018-05-24T11:41:28.400Z,11.17
2018-05-24T11:43:55.986Z,10.07
2018-05-24T11:46:23.569Z,8.00
2018-05-24T11:48:51.193Z,6.53
2018-05-24T11:51:18.777Z,5.27
2018-05-24T11:53:46.353Z,4.67
2018-05-24T11:56:13.997Z,5.03
2018-05-24T11:58:41.579Z,4.10
2018-05-24T12:01:09.157Z,3.93
2018-05-24T12:03:36.793Z,3.33
2018-05-24T12:06:04.373Z,5.67
2018-05-24T12:08:31.948Z,5.17
2018-05-24T12:11:00.339Z,5.97
2018-05-24T12:13:28.684Z,5.30
2018-05-24T12:15:56.320Z,4.70
2018-05-24T12:18:23.900Z,4.13
2018-05-24T12:20:51.481Z,4.20
2018-05-24T12:23:19.097Z,5.10
2018-05-24T12:25:46.679Z,3.67
2018-05-24T12:28:14.266Z,3.37
2018-05-24T12:30:41.885Z,3.03
2018-05-24T12:33:09.460Z,4.10
2018-05-24T12:35:37.247Z,3.07
2018-05-24T12:38:04.798Z,3.30
2018-05-24T12:40:32.383Z,3.43
2018-05-24T12:43:00.765Z,3.23
2018-05-24T12:45:29.141Z,3.40
2018-05-24T12:47:56.837Z,4.50
2018-05-24T12:50:24.427Z,4.90
2018-05-24T12:52:52.005Z,5.63
2018-05-24T12:55:19.650Z,4.50
2018-05-24T12:57:47.231Z,4.53
2018-05-24T13:00:15.597Z,4.40
2018-05-24T13:02:43.328Z,3.93
2018-05-24T13:05:10.911Z,4.40
2018-05-24T13:07:38.485Z,3.67
2018-05-24T13:10:06.105Z,3.90
2018-05-24T13:12:33.681Z,2.80
2018-05-24T13:15:01.261Z,3.87
2018-05-24T13:17:28.901Z,3.17
2018-05-24T13:19:56.492Z,3.10
2018-05-24T13:22:24.069Z,3.60
2018-05-24T13:24:51.689Z,3.03
2018-05-24T13:27:19.275Z,4.03
2018-05-24T13:29:46.865Z,3.87
2018-05-24T13:32:15.261Z,3.60
2018-05-24T13:34:43.608Z,3.13
2018-05-24T13:37:11.190Z,2.83
2018-05-24T13:39:39.635Z,2.83
2018-05-24T13:42:07.213Z,2.57
2018-05-24T13:44:34.797Z,2.90
2018-05-24T13:47:03.225Z,3.60
2018-05-24T13:49:30.809Z,3.70
2018-05-24T13:51:58.396Z,3.77
2018-05-24T13:54:26.786Z,3.13
2018-05-24T13:56:55.137Z,2.83
2018-05-24T13:59:22.775Z,3.10
2018-05-24T14:01:50.396Z,3.30
2018-05-24T14:04:17.980Z,3.03
2018-05-24T14:06:45.611Z,3.30
2018-05-24T14:09:13.196Z,3.10
2018-05-24T14:11:40.772Z,3.20
2018-05-24T14:14:08.396Z,3.20
2018-05-24T14:16:35.982Z,2.90
2018-05-24T14:19:03.561Z,2.73
2018-05-24T14:21:31.193Z,2.50
2018-05-24T14:23:58.769Z,2.70
2018-05-24T14:26:26.357Z,2.50
2018-05-24T14:28:54.009Z,2.30
2018-05-24T14:31:21.592Z,2.17
2018-05-24T14:33:49.171Z,2.20
2018-05-24T14:36:17.564Z,2.40
2018-05-24T14:38:45.141Z,2.77
2018-05-24T14:41:12.720Z,3.10
2018-05-24T14:43:40.336Z,3.00
2018-05-24T14:46:08.680Z,2.60
2018-05-24T14:48:36.357Z,2.93
2018-05-24T14:51:03.941Z,3.03
2018-05-24T14:53:32.289Z,2.97
2018-05-24T14:55:59.919Z,3.40
2018-05-24T14:58:27.505Z,2.90
2018-05-24T15:00:55.080Z,2.70
2018-05-24T15:03:22.697Z,2.90
2018-05-24T15:05:50.273Z,3.13
2018-05-24T15:08:17.881Z,2.87
2018-05-24T15:10:46.290Z,2.93
2018-05-24T15:13:25.879Z,2.73
2018-05-24T15:15:53.509Z,4.00
2018-05-24T15:18:21.093Z,3.00
2018-05-24T15:20:48.669Z,3.00
2018-05-24T15:23:16.280Z,3.00
2018-05-24T15:25:43.898Z,3.33
2018-05-24T15:28:11.481Z,3.73
2018-05-24T15:30:39.826Z,3.23
2018-05-24T15:33:07.542Z,3.70
2018-05-24T15:35:35.121Z,3.30
2018-05-24T15:38:02.700Z,3.20
2018-05-24T15:40:30.328Z,3.80
2018-05-24T15:42:57.901Z,3.73
2018-05-24T15:45:25.611Z,3.33
2018-05-24T15:47:53.245Z,3.27
2018-05-24T15:50:20.833Z,4.03
2018-05-24T15:52:48.415Z,3.50
2018-05-24T15:55:16.052Z,3.30
2018-05-24T15:57:43.633Z,3.70
2018-05-24T16:00:11.213Z,2.90
2018-05-24T16:02:38.849Z,2.33
2018-05-24T16:05:07.189Z,2.20
2018-05-24T16:07:34.773Z,2.30
2018-05-24T16:10:02.385Z,2.37
2018-05-24T16:12:29.970Z,2.70
2018-05-24T16:14:57.553Z,6.57
2018-05-24T16:17:25.217Z,9.80
2018-05-24T16:19:53.560Z,7.67
2018-05-24T16:22:21.133Z,3.90
2018-05-24T16:24:49.537Z,2.43
2018-05-24T16:27:17.113Z,2.62
2018-05-24T16:29:44.698Z,2.40
2018-05-24T16:32:12.321Z,1.83
2018-05-24T16:34:39.903Z,1.63
2018-05-24T16:37:07.478Z,1.63
2018-05-24T16:39:35.077Z,2.80
2018-05-24T16:42:02.716Z,2.30
2018-05-24T16:44:30.293Z,2.00
2018-05-24T16:46:57.897Z,1.83
2018-05-24T16:49:25.525Z,2.50
2018-05-24T16:51:53.893Z,3.30
2018-05-24T16:54:21.563Z,3.07
2018-05-24T16:56:49.097Z,3.40
2018-05-24T16:59:16.708Z,2.37
2018-05-24T17:01:44.302Z,1.93
2018-05-24T17:04:11.884Z,2.10
2018-05-24T17:06:39.493Z,2.13
2018-05-24T17:09:07.069Z,2.63
2018-05-24T17:11:34.669Z,2.83
2018-05-24T17:14:02.252Z,2.20
2018-05-24T17:16:30.616Z,2.43
2018-05-24T17:18:58.956Z,2.43
2018-05-24T17:21:26.572Z,3.30
2018-05-24T17:23:54.914Z,2.80
2018-05-24T17:26:22.501Z,3.03
2018-05-24T17:28:50.865Z,2.90
2018-05-24T17:31:18.474Z,3.67
2018-05-24T17:33:46.073Z,3.53
2018-05-24T17:36:13.651Z,4.00
2018-05-24T17:38:41.254Z,4.57
2018-05-24T17:41:08.838Z,5.10
2018-05-24T17:43:37.271Z,3.50
2018-05-24T17:46:04.821Z,3.00
2018-05-24T17:48:32.428Z,2.70
2018-05-24T17:51:00.773Z,2.83
2018-05-24T17:53:28.383Z,3.33
2018-05-24T17:55:55.976Z,3.00
2018-05-24T17:58:23.578Z,3.77
2018-05-24T18:00:51.161Z,3.97
2018-05-24T18:03:19.536Z,3.50
2018-05-24T18:05:47.170Z,2.83
2018-05-24T18:08:14.748Z,3.50
2018-05-24T18:10:42.324Z,3.23
2018-05-24T18:13:10.692Z,3.43
2018-05-24T18:15:38.300Z,3.77
2018-05-24T18:18:05.889Z,3.67
2018-05-24T18:20:33.494Z,4.30
2018-05-24T18:23:01.068Z,3.77
2018-05-24T18:25:28.666Z,3.77
2018-05-24T18:27:57.036Z,3.50
2018-05-24T18:30:24.621Z,3.20
2018-05-24T18:32:52.993Z,3.30
2018-05-24T18:35:20.573Z,3.83
2018-05-24T18:37:48.191Z,3.80
2018-05-24T18:40:15.769Z,3.93
2018-05-24T18:42:44.226Z,3.77
2018-05-24T18:45:11.756Z,3.70
2018-05-24T18:47:39.328Z,3.53
2018-05-24T18:50:07.153Z,3.50
2018-05-24T18:52:34.732Z,3.30
2018-05-24T18:55:02.336Z,3.20
2018-05-24T18:57:29.929Z,3.60
2018-05-24T18:59:57.585Z,3.57
2018-05-24T19:02:25.161Z,3.90
2018-05-24T19:04:52.771Z,3.30
2018-05-24T19:07:20.340Z,3.60
2018-05-24T19:09:47.941Z,3.27
2018-05-24T19:12:15.540Z,3.37
2018-05-24T19:14:43.967Z,3.63
2018-05-24T19:17:12.352Z,4.00
2018-05-24T19:19:39.930Z,3.53
2018-05-24T19:22:08.277Z,3.43
2018-05-24T19:24:35.897Z,3.73
2018-05-24T19:27:03.501Z,3.63
2018-05-24T19:29:31.118Z,4.00
2018-05-24T19:31:59.481Z,3.47
2018-05-24T19:34:27.085Z,3.37
2018-05-24T19:36:55.429Z,4.13
2018-05-24T19:39:23.030Z,3.60
2018-05-24T19:41:51.377Z,3.80
2018-05-24T19:44:18.993Z,4.30
2018-05-24T19:46:46.573Z,4.03
2018-05-24T19:49:14.177Z,4.43
2018-05-24T19:51:42.521Z,4.50
2018-05-24T19:54:10.248Z,4.47
2018-05-24T19:56:37.825Z,4.07
2018-05-24T19:59:05.438Z,4.10
2018-05-24T20:01:33.780Z,3.80
2018-05-24T20:04:03.615Z,3.83
2018-05-24T20:06:31.588Z,4.17
2018-05-24T20:08:59.559Z,3.90
2018-05-24T20:11:27.427Z,2.93
2018-05-24T20:13:55.391Z,3.70
2018-05-24T20:16:23.365Z,3.60
2018-05-24T20:18:51.334Z,4.10
2018-05-24T20:21:19.304Z,4.37
2018-05-24T20:23:47.275Z,3.50
2018-05-24T20:26:15.276Z,3.40
2018-05-24T20:28:44.035Z,3.90
2018-05-24T20:31:11.882Z,3.40
2018-05-24T20:33:40.468Z,4.43
2018-05-24T20:36:09.078Z,2.97
2018-05-24T20:38:36.904Z,3.60
2018-05-24T20:41:04.726Z,3.87
2018-05-24T20:43:33.224Z,3.67
2018-05-24T20:46:00.785Z,4.80
2018-05-24T20:48:28.341Z,4.60
2018-05-24T20:50:55.928Z,4.20
2018-05-24T20:53:23.482Z,3.50
2018-05-24T20:55:51.077Z,4.30
2018-05-24T20:58:18.661Z,4.37
2018-05-24T21:00:46.230Z,5.40
2018-05-24T21:03:14.572Z,4.20
2018-05-24T21:05:42.134Z,4.20
2018-05-24T21:08:09.705Z,4.83
2018-05-24T21:10:37.257Z,3.83
2018-05-24T21:13:04.841Z,3.97
2018-05-24T21:15:32.413Z,4.17
2018-05-24T21:18:00.728Z,4.60
2018-05-24T21:20:28.344Z,4.67
2018-05-24T21:22:56.673Z,4.63
2018-05-24T21:25:24.259Z,4.87
2018-05-24T21:27:51.809Z,4.43
2018-05-24T21:30:19.436Z,5.00
2018-05-24T21:32:47.726Z,3.77
2018-05-24T21:35:15.317Z,4.60
2018-05-24T21:37:42.868Z,4.83
2018-05-24T21:40:10.422Z,4.20
2018-05-24T21:42:37.992Z,4.53
2018-05-24T21:45:05.571Z,4.80
2018-05-24T21:47:33.143Z,4.80
2018-05-24T21:50:01.457Z,5.13
2018-05-24T21:52:29.028Z,5.93
2018-05-24T21:54:56.641Z,5.10
2018-05-24T21:57:24.224Z,5.03
2018-05-24T21:59:51.773Z,4.27
2018-05-24T22:02:19.322Z,4.00
2018-05-24T22:04:46.892Z,3.87
2018-05-24T22:07:14.486Z,4.60
2018-05-24T22:09:42.057Z,5.20
2018-05-24T22:12:09.613Z,4.30
2018-05-24T22:14:37.189Z,3.87
2018-05-24T22:17:05.535Z,4.20
2018-05-24T22:19:33.115Z,4.60
2018-05-24T22:22:00.666Z,4.40
2018-05-24T22:24:28.237Z,4.70
2018-05-24T22:26:55.813Z,3.90
2018-05-24T22:29:24.170Z,4.50
2018-05-24T22:31:51.729Z,5.10
2018-05-24T22:34:19.281Z,4.43
2018-05-24T22:36:46.856Z,5.13
2018-05-24T22:39:14.425Z,5.27
2018-05-24T22:41:42.001Z,5.53
2018-05-24T22:44:10.364Z,5.70
2018-05-24T22:46:37.943Z,7.90
2018-05-24T22:49:06.313Z,5.90
2018-05-24T22:51:34.652Z,6.43
2018-05-24T22:54:02.281Z,6.50
2018-05-24T22:56:29.880Z,5.53
2018-05-24T22:58:57.481Z,5.80
2018-05-24T23:01:25.825Z,5.27
2018-05-24T23:03:53.432Z,4.30
2018-05-24T23:06:21.005Z,4.30
2018-05-24T23:08:48.604Z,3.40
2018-05-24T23:11:16.199Z,3.77
2018-05-24T23:13:44.548Z,3.50
2018-05-24T23:16:12.169Z,3.60
2018-05-24T23:18:39.773Z,4.10
2018-05-24T23:21:07.345Z,3.90
2018-05-24T23:23:34.921Z,4.30
2018-05-24T23:26:03.289Z,4.80
2018-05-24T23:28:30.865Z,4.67
2018-05-24T23:30:59.235Z,5.63
2018-05-24T23:33:27.572Z,4.60
2018-05-24T23:35:55.169Z,5.70
2018-05-24T23:38:22.780Z,5.43
2018-05-24T23:40:50.348Z,5.47
2018-05-24T23:43:17.948Z,5.10
2018-05-24T23:45:45.526Z,5.50
2018-05-24T23:48:13.900Z,5.20
2018-05-24T23:50:41.487Z,5.43
2018-05-24T23:53:09.061Z,5.20
2018-05-24T23:55:36.680Z,6.17
2018-05-24T23:58:05.021Z,6.10
